< < Back
Terminal Aerodrome Forecast


Current Version              Previous Versions:   1  2  3  4  5  6  7  8  9  

Terminal Aerodrome Forecast

115
FTUS44 KBMX 301132
TAFANB
TAF
KANB 301132Z 3012/3112 36003KT P6SM SCT250
     FM301900 36010KT P6SM VCTS SCT050CB SCT200
     FM302300 02006KT P6SM SCT200=

Latest METAR

185
SAUS70 KWBC 302300 RRB
MTRANB
METAR KANB 302253Z AUTO 01011KT 10SM CLR 34/21 A2991 RMK AO2 SLP117
T03440206


USA.gov is the U.S. government's official web portal to all federal, state and local government web resources and services.